sensor_id;sensor_type;location;lat;lon;timestamp;pressure;altitude;pressure_sealevel;temperature
78961;BMP280;68362;45.970;12.646;2024-02-26T00:00:43;100412.66;;;5.89
78961;BMP280;68362;45.970;12.646;2024-02-26T00:02:05;100406.94;;;6.07
78961;BMP280;68362;45.970;12.646;2024-02-26T00:03:08;100403.75;;;6.05
78961;BMP280;68362;45.970;12.646;2024-02-26T00:04:11;100406.28;;;5.98
78961;BMP280;68362;45.970;12.646;2024-02-26T00:05:14;100408.69;;;6.00
78961;BMP280;68362;45.970;12.646;2024-02-26T00:06:16;100400.69;;;5.95
78961;BMP280;68362;45.970;12.646;2024-02-26T00:07:20;100401.13;;;6.05
78961;BMP280;68362;45.970;12.646;2024-02-26T00:08:22;100407.00;;;6.14
78961;BMP280;68362;45.970;12.646;2024-02-26T00:09:25;100402.78;;;6.13
78961;BMP280;68362;45.970;12.646;2024-02-26T00:10:27;100408.78;;;6.13
78961;BMP280;68362;45.970;12.646;2024-02-26T00:11:29;100395.78;;;6.13
78961;BMP280;68362;45.970;12.646;2024-02-26T00:12:31;100405.41;;;6.19
78961;BMP280;68362;45.970;12.646;2024-02-26T00:13:33;100390.72;;;6.12
78961;BMP280;68362;45.970;12.646;2024-02-26T00:14:35;100391.34;;;6.14
78961;BMP280;68362;45.970;12.646;2024-02-26T00:15:37;100390.28;;;6.02
78961;BMP280;68362;45.970;12.646;2024-02-26T00:16:40;100391.88;;;6.03
78961;BMP280;68362;45.970;12.646;2024-02-26T00:17:43;100395.81;;;5.92
78961;BMP280;68362;45.970;12.646;2024-02-26T00:18:45;100395.19;;;5.55
78961;BMP280;68362;45.970;12.646;2024-02-26T00:19:51;100391.63;;;5.63
78961;BMP280;68362;45.970;12.646;2024-02-26T00:20:53;100390.34;;;5.52
78961;BMP280;68362;45.970;12.646;2024-02-26T00:21:56;100388.41;;;5.61
78961;BMP280;68362;45.970;12.646;2024-02-26T00:22:58;100385.69;;;5.47
78961;BMP280;68362;45.970;12.646;2024-02-26T00:24:00;100384.28;;;5.45
78961;BMP280;68362;45.970;12.646;2024-02-26T00:25:02;100389.22;;;5.61
78961;BMP280;68362;45.970;12.646;2024-02-26T00:26:05;100386.47;;;5.69
78961;BMP280;68362;45.970;12.646;2024-02-26T00:27:07;100385.47;;;5.70
78961;BMP280;68362;45.970;12.646;2024-02-26T00:28:10;100382.19;;;5.62
78961;BMP280;68362;45.970;12.646;2024-02-26T00:29:12;100380.75;;;5.59
78961;BMP280;68362;45.970;12.646;2024-02-26T00:30:15;100387.31;;;5.77
78961;BMP280;68362;45.970;12.646;2024-02-26T00:31:17;100384.03;;;5.68
78961;BMP280;68362;45.970;12.646;2024-02-26T00:32:19;100383.09;;;5.47
78961;BMP280;68362;45.970;12.646;2024-02-26T00:33:22;100383.16;;;5.33
78961;BMP280;68362;45.970;12.646;2024-02-26T00:34:24;100381.38;;;5.33
78961;BMP280;68362;45.970;12.646;2024-02-26T00:35:27;100387.56;;;5.32
78961;BMP280;68362;45.970;12.646;2024-02-26T00:36:29;100378.25;;;5.44
78961;BMP280;68362;45.970;12.646;2024-02-26T00:37:31;100377.66;;;5.42
78961;BMP280;68362;45.970;12.646;2024-02-26T00:38:33;100383.50;;;5.23
78961;BMP280;68362;45.970;12.646;2024-02-26T00:39:35;100382.53;;;5.09
78961;BMP280;68362;45.970;12.646;2024-02-26T00:40:37;100385.91;;;5.03
78961;BMP280;68362;45.970;12.646;2024-02-26T00:41:40;100387.38;;;5.12
78961;BMP280;68362;45.970;12.646;2024-02-26T00:42:43;100377.72;;;5.06
78961;BMP280;68362;45.970;12.646;2024-02-26T00:43:47;100376.69;;;5.22
78961;BMP280;68362;45.970;12.646;2024-02-26T00:44:50;100382.38;;;5.32
78961;BMP280;68362;45.970;12.646;2024-02-26T00:45:52;100368.22;;;5.13
78961;BMP280;68362;45.970;12.646;2024-02-26T00:46:54;100371.50;;;4.86
78961;BMP280;68362;45.970;12.646;2024-02-26T00:47:56;100361.00;;;4.94
78961;BMP280;68362;45.970;12.646;2024-02-26T00:48:59;100367.25;;;5.21
78961;BMP280;68362;45.970;12.646;2024-02-26T00:50:02;100367.78;;;5.38
78961;BMP280;68362;45.970;12.646;2024-02-26T00:51:05;100358.47;;;5.50
78961;BMP280;68362;45.970;12.646;2024-02-26T00:52:07;100376.56;;;5.58
78961;BMP280;68362;45.970;12.646;2024-02-26T00:53:09;100364.69;;;5.49
78961;BMP280;68362;45.970;12.646;2024-02-26T00:54:11;100366.72;;;5.54
78961;BMP280;68362;45.970;12.646;2024-02-26T00:55:14;100364.13;;;5.54
78961;BMP280;68362;45.970;12.646;2024-02-26T00:56:16;100367.59;;;5.61
78961;BMP280;68362;45.970;12.646;2024-02-26T00:57:18;100360.72;;;5.53
78961;BMP280;68362;45.970;12.646;2024-02-26T00:58:20;100362.22;;;5.41
78961;BMP280;68362;45.970;12.646;2024-02-26T00:59:23;100357.31;;;5.53
78961;BMP280;68362;45.970;12.646;2024-02-26T01:00:25;100356.97;;;5.62
78961;BMP280;68362;45.970;12.646;2024-02-26T01:01:27;100365.69;;;5.48
78961;BMP280;68362;45.970;12.646;2024-02-26T01:02:29;100359.16;;;5.31
78961;BMP280;68362;45.970;12.646;2024-02-26T01:03:32;100361.47;;;5.47
78961;BMP280;68362;45.970;12.646;2024-02-26T01:04:34;100364.31;;;5.52
78961;BMP280;68362;45.970;12.646;2024-02-26T01:05:37;100356.97;;;5.62
78961;BMP280;68362;45.970;12.646;2024-02-26T01:06:39;100355.63;;;5.66
78961;BMP280;68362;45.970;12.646;2024-02-26T01:07:42;100359.81;;;5.39
78961;BMP280;68362;45.970;12.646;2024-02-26T01:08:45;100353.22;;;5.15
78961;BMP280;68362;45.970;12.646;2024-02-26T01:09:47;100349.34;;;5.33
78961;BMP280;68362;45.970;12.646;2024-02-26T01:10:49;100352.72;;;5.05
78961;BMP280;68362;45.970;12.646;2024-02-26T01:11:51;100353.22;;;5.15
78961;BMP280;68362;45.970;12.646;2024-02-26T01:12:53;100350.28;;;4.82
78961;BMP280;68362;45.970;12.646;2024-02-26T01:13:55;100350.53;;;4.51
78961;BMP280;68362;45.970;12.646;2024-02-26T01:14:58;100350.44;;;4.59
78961;BMP280;68362;45.970;12.646;2024-02-26T01:16:01;100348.84;;;4.80
78961;BMP280;68362;45.970;12.646;2024-02-26T01:17:03;100343.06;;;4.99
78961;BMP280;68362;45.970;12.646;2024-02-26T01:18:05;100336.41;;;5.18
78961;BMP280;68362;45.970;12.646;2024-02-26T01:19:07;100342.50;;;5.25
78961;BMP280;68362;45.970;12.646;2024-02-26T01:20:10;100337.16;;;5.12
78961;BMP280;68362;45.970;12.646;2024-02-26T01:21:12;100337.00;;;5.13
78961;BMP280;68362;45.970;12.646;2024-02-26T01:22:14;100335.88;;;5.01
78961;BMP280;68362;45.970;12.646;2024-02-26T01:23:16;100336.97;;;4.92
78961;BMP280;68362;45.970;12.646;2024-02-26T01:24:19;100333.25;;;4.80
78961;BMP280;68362;45.970;12.646;2024-02-26T01:25:21;100325.22;;;4.75
78961;BMP280;68362;45.970;12.646;2024-02-26T01:26:23;100327.81;;;4.75
78961;BMP280;68362;45.970;12.646;2024-02-26T01:27:25;100328.06;;;4.80
78961;BMP280;68362;45.970;12.646;2024-02-26T01:28:29;100325.31;;;4.81
78961;BMP280;68362;45.970;12.646;2024-02-26T01:29:31;100323.19;;;4.70
78961;BMP280;68362;45.970;12.646;2024-02-26T01:30:34;100312.34;;;4.66
78961;BMP280;68362;45.970;12.646;2024-02-26T01:31:36;100314.81;;;4.75
78961;BMP280;68362;45.970;12.646;2024-02-26T01:32:38;100314.00;;;4.74
78961;BMP280;68362;45.970;12.646;2024-02-26T01:33:40;100312.13;;;5.04
78961;BMP280;68362;45.970;12.646;2024-02-26T01:34:42;100312.63;;;4.93
78961;BMP280;68362;45.970;12.646;2024-02-26T01:35:44;100309.50;;;4.83
78961;BMP280;68362;45.970;12.646;2024-02-26T01:36:47;100309.53;;;4.68
78961;BMP280;68362;45.970;12.646;2024-02-26T01:37:49;100309.38;;;4.91
78961;BMP280;68362;45.970;12.646;2024-02-26T01:38:51;100305.00;;;5.13
78961;BMP280;68362;45.970;12.646;2024-02-26T01:39:53;100299.69;;;5.28
78961;BMP280;68362;45.970;12.646;2024-02-26T01:40:56;100309.56;;;5.39
78961;BMP280;68362;45.970;12.646;2024-02-26T01:41:58;100310.38;;;5.39
78961;BMP280;68362;45.970;12.646;2024-02-26T01:43:00;100306.94;;;5.39
78961;BMP280;68362;45.970;12.646;2024-02-26T01:44:03;100303.22;;;5.48
78961;BMP280;68362;45.970;12.646;2024-02-26T01:45:05;100308.63;;;5.46
78961;BMP280;68362;45.970;12.646;2024-02-26T01:46:12;100306.13;;;5.32
78961;BMP280;68362;45.970;12.646;2024-02-26T01:47:15;100308.44;;;5.48
78961;BMP280;68362;45.970;12.646;2024-02-26T01:48:17;100312.50;;;5.29
78961;BMP280;68362;45.970;12.646;2024-02-26T01:49:20;100306.59;;;5.42
78961;BMP280;68362;45.970;12.646;2024-02-26T01:50:23;100310.31;;;5.05
78961;BMP280;68362;45.970;12.646;2024-02-26T01:51:26;100306.78;;;4.91
78961;BMP280;68362;45.970;12.646;2024-02-26T01:52:28;100304.91;;;5.06
78961;BMP280;68362;45.970;12.646;2024-02-26T01:53:31;100300.88;;;5.04
78961;BMP280;68362;45.970;12.646;2024-02-26T01:54:35;100305.94;;;5.05
78961;BMP280;68362;45.970;12.646;2024-02-26T01:55:39;100301.53;;;5.06
78961;BMP280;68362;45.970;12.646;2024-02-26T01:56:41;100304.03;;;5.20
78961;BMP280;68362;45.970;12.646;2024-02-26T01:57:45;100305.88;;;5.27
78961;BMP280;68362;45.970;12.646;2024-02-26T01:58:48;100308.50;;;5.27
78961;BMP280;68362;45.970;12.646;2024-02-26T01:59:51;100300.09;;;5.25
78961;BMP280;68362;45.970;12.646;2024-02-26T02:00:53;100299.25;;;5.24
78961;BMP280;68362;45.970;12.646;2024-02-26T02:01:58;100296.28;;;5.27
78961;BMP280;68362;45.970;12.646;2024-02-26T02:03:02;100299.81;;;5.19
78961;BMP280;68362;45.970;12.646;2024-02-26T02:04:05;100300.69;;;5.27
78961;BMP280;68362;45.970;12.646;2024-02-26T02:05:08;100299.16;;;5.11
78961;BMP280;68362;45.970;12.646;2024-02-26T02:06:11;100299.19;;;5.17
78961;BMP280;68362;45.970;12.646;2024-02-26T02:07:14;100293.75;;;5.12
78961;BMP280;68362;45.970;12.646;2024-02-26T02:08:16;100296.41;;;5.19
78961;BMP280;68362;45.970;12.646;2024-02-26T02:09:18;100296.59;;;5.17
78961;BMP280;68362;45.970;12.646;2024-02-26T02:10:20;100288.63;;;4.76
78961;BMP280;68362;45.970;12.646;2024-02-26T02:11:27;100295.22;;;4.36
78961;BMP280;68362;45.970;12.646;2024-02-26T02:12:30;100290.22;;;4.19
78961;BMP280;68362;45.970;12.646;2024-02-26T02:13:34;100291.69;;;4.07
78961;BMP280;68362;45.970;12.646;2024-02-26T02:14:37;100292.66;;;4.06
78961;BMP280;68362;45.970;12.646;2024-02-26T02:15:39;100289.34;;;3.83
78961;BMP280;68362;45.970;12.646;2024-02-26T02:16:41;100283.63;;;3.72
78961;BMP280;68362;45.970;12.646;2024-02-26T02:17:44;100286.50;;;3.78
78961;BMP280;68362;45.970;12.646;2024-02-26T02:18:46;100289.16;;;3.69
78961;BMP280;68362;45.970;12.646;2024-02-26T02:19:48;100279.25;;;3.88
78961;BMP280;68362;45.970;12.646;2024-02-26T02:20:51;100276.47;;;4.04
78961;BMP280;68362;45.970;12.646;2024-02-26T02:21:53;100273.16;;;4.10
78961;BMP280;68362;45.970;12.646;2024-02-26T02:22:55;100280.41;;;4.00
78961;BMP280;68362;45.970;12.646;2024-02-26T02:23:57;100277.53;;;3.95
78961;BMP280;68362;45.970;12.646;2024-02-26T02:24:59;100281.66;;;4.04
78961;BMP280;68362;45.970;12.646;2024-02-26T02:26:02;100284.16;;;4.12
78961;BMP280;68362;45.970;12.646;2024-02-26T02:27:04;100281.44;;;4.35
78961;BMP280;68362;45.970;12.646;2024-02-26T02:28:07;100280.19;;;4.53
78961;BMP280;68362;45.970;12.646;2024-02-26T02:29:09;100288.44;;;4.56
78961;BMP280;68362;45.970;12.646;2024-02-26T02:30:12;100283.41;;;4.69
78961;BMP280;68362;45.970;12.646;2024-02-26T02:31:15;100283.75;;;4.66
78961;BMP280;68362;45.970;12.646;2024-02-26T02:32:17;100281.28;;;4.80
78961;BMP280;68362;45.970;12.646;2024-02-26T02:33:21;100287.34;;;4.87
78961;BMP280;68362;45.970;12.646;2024-02-26T02:34:25;100281.78;;;4.90
78961;BMP280;68362;45.970;12.646;2024-02-26T02:35:27;100282.75;;;4.89
78961;BMP280;68362;45.970;12.646;2024-02-26T02:36:29;100281.41;;;4.93
78961;BMP280;68362;45.970;12.646;2024-02-26T02:37:32;100290.38;;;4.90
78961;BMP280;68362;45.970;12.646;2024-02-26T02:38:34;100291.06;;;4.99
78961;BMP280;68362;45.970;12.646;2024-02-26T02:39:36;100290.94;;;5.07
78961;BMP280;68362;45.970;12.646;2024-02-26T02:40:38;100288.09;;;5.02
78961;BMP280;68362;45.970;12.646;2024-02-26T02:41:40;100292.78;;;4.92
78961;BMP280;68362;45.970;12.646;2024-02-26T02:42:43;100293.03;;;4.97
78961;BMP280;68362;45.970;12.646;2024-02-26T02:43:45;100289.00;;;4.94
78961;BMP280;68362;45.970;12.646;2024-02-26T02:44:47;100291.88;;;4.78
78961;BMP280;68362;45.970;12.646;2024-02-26T02:45:49;100299.34;;;4.66
78961;BMP280;68362;45.970;12.646;2024-02-26T02:46:51;100290.81;;;4.72
78961;BMP280;68362;45.970;12.646;2024-02-26T02:47:55;100295.88;;;4.59
78961;BMP280;68362;45.970;12.646;2024-02-26T02:48:57;100286.97;;;4.68
78961;BMP280;68362;45.970;12.646;2024-02-26T02:49:59;100291.91;;;4.63
78961;BMP280;68362;45.970;12.646;2024-02-26T02:51:01;100285.03;;;4.77
78961;BMP280;68362;45.970;12.646;2024-02-26T02:52:04;100278.72;;;4.65
78961;BMP280;68362;45.970;12.646;2024-02-26T02:53:06;100283.03;;;4.72
78961;BMP280;68362;45.970;12.646;2024-02-26T02:54:08;100286.84;;;4.77
78961;BMP280;68362;45.970;12.646;2024-02-26T02:55:10;100281.16;;;4.88
78961;BMP280;68362;45.970;12.646;2024-02-26T02:56:13;100272.63;;;4.94
78961;BMP280;68362;45.970;12.646;2024-02-26T02:57:15;100272.56;;;4.66
78961;BMP280;68362;45.970;12.646;2024-02-26T02:58:17;100266.88;;;4.05
78961;BMP280;68362;45.970;12.646;2024-02-26T02:59:19;100272.34;;;3.95
78961;BMP280;68362;45.970;12.646;2024-02-26T03:00:21;100272.69;;;3.92
78961;BMP280;68362;45.970;12.646;2024-02-26T03:01:27;100279.53;;;3.78
78961;BMP280;68362;45.970;12.646;2024-02-26T03:02:29;100266.06;;;4.04
78961;BMP280;68362;45.970;12.646;2024-02-26T03:03:31;100272.63;;;4.36
78961;BMP280;68362;45.970;12.646;2024-02-26T03:04:34;100274.75;;;4.47
78961;BMP280;68362;45.970;12.646;2024-02-26T03:05:36;100271.22;;;4.34
78961;BMP280;68362;45.970;12.646;2024-02-26T03:06:39;100267.84;;;4.55
78961;BMP280;68362;45.970;12.646;2024-02-26T03:07:41;100266.69;;;4.57
78961;BMP280;68362;45.970;12.646;2024-02-26T03:08:43;100264.44;;;4.54
78961;BMP280;68362;45.970;12.646;2024-02-26T03:09:47;100265.69;;;4.58
78961;BMP280;68362;45.970;12.646;2024-02-26T03:10:49;100255.97;;;4.67
78961;BMP280;68362;45.970;12.646;2024-02-26T03:11:51;100260.97;;;4.68
78961;BMP280;68362;45.970;12.646;2024-02-26T03:12:54;100258.25;;;4.55
78961;BMP280;68362;45.970;12.646;2024-02-26T03:13:56;100262.22;;;4.51
78961;BMP280;68362;45.970;12.646;2024-02-26T03:14:58;100260.72;;;4.63
78961;BMP280;68362;45.970;12.646;2024-02-26T03:16:04;100271.09;;;4.42
78961;BMP280;68362;45.970;12.646;2024-02-26T03:17:07;100268.75;;;4.26
78961;BMP280;68362;45.970;12.646;2024-02-26T03:18:09;100267.69;;;4.05
78961;BMP280;68362;45.970;12.646;2024-02-26T03:19:15;100265.47;;;4.02
78961;BMP280;68362;45.970;12.646;2024-02-26T03:20:18;100264.50;;;4.24
78961;BMP280;68362;45.970;12.646;2024-02-26T03:21:21;100263.13;;;4.07
78961;BMP280;68362;45.970;12.646;2024-02-26T03:22:23;100265.00;;;4.13
78961;BMP280;68362;45.970;12.646;2024-02-26T03:23:25;100260.28;;;4.38
78961;BMP280;68362;45.970;12.646;2024-02-26T03:24:28;100264.56;;;4.46
78961;BMP280;68362;45.970;12.646;2024-02-26T03:25:30;100260.38;;;4.30
78961;BMP280;68362;45.970;12.646;2024-02-26T03:26:32;100251.97;;;4.28
78961;BMP280;68362;45.970;12.646;2024-02-26T03:27:34;100263.28;;;4.42
78961;BMP280;68362;45.970;12.646;2024-02-26T03:28:36;100260.56;;;4.29
78961;BMP280;68362;45.970;12.646;2024-02-26T03:29:38;100257.97;;;4.29
78961;BMP280;68362;45.970;12.646;2024-02-26T03:30:40;100252.69;;;4.37
78961;BMP280;68362;45.970;12.646;2024-02-26T03:31:42;100258.34;;;4.26
78961;BMP280;68362;45.970;12.646;2024-02-26T03:32:44;100261.44;;;4.36
78961;BMP280;68362;45.970;12.646;2024-02-26T03:33:47;100253.22;;;4.32
78961;BMP280;68362;45.970;12.646;2024-02-26T03:34:49;100263.81;;;4.52
78961;BMP280;68362;45.970;12.646;2024-02-26T03:35:56;100250.34;;;4.63
78961;BMP280;68362;45.970;12.646;2024-02-26T03:36:58;100258.25;;;4.55
78961;BMP280;68362;45.970;12.646;2024-02-26T03:38:01;100251.28;;;4.19
78961;BMP280;68362;45.970;12.646;2024-02-26T03:39:04;100246.66;;;4.00
78961;BMP280;68362;45.970;12.646;2024-02-26T03:40:10;100251.84;;;4.00
78961;BMP280;68362;45.970;12.646;2024-02-26T03:41:14;100246.31;;;3.88
78961;BMP280;68362;45.970;12.646;2024-02-26T03:42:17;100248.00;;;4.11
78961;BMP280;68362;45.970;12.646;2024-02-26T03:43:19;100242.78;;;4.26
78961;BMP280;68362;45.970;12.646;2024-02-26T03:44:21;100246.84;;;4.35
78961;BMP280;68362;45.970;12.646;2024-02-26T03:45:23;100242.09;;;4.38
78961;BMP280;68362;45.970;12.646;2024-02-26T03:46:28;100251.56;;;4.46
78961;BMP280;68362;45.970;12.646;2024-02-26T03:47:30;100245.25;;;4.55
78961;BMP280;68362;45.970;12.646;2024-02-26T03:48:32;100240.34;;;4.60
78961;BMP280;68362;45.970;12.646;2024-02-26T03:49:34;100248.56;;;3.77
78961;BMP280;68362;45.970;12.646;2024-02-26T03:50:37;100247.47;;;3.86
78961;BMP280;68362;45.970;12.646;2024-02-26T03:51:39;100246.22;;;3.67
78961;BMP280;68362;45.970;12.646;2024-02-26T03:52:41;100246.56;;;4.08
78961;BMP280;68362;45.970;12.646;2024-02-26T03:53:44;100246.53;;;4.23
78961;BMP280;68362;45.970;12.646;2024-02-26T03:54:47;100253.84;;;4.34
78961;BMP280;68362;45.970;12.646;2024-02-26T03:55:49;100250.44;;;4.34
78961;BMP280;68362;45.970;12.646;2024-02-26T03:56:53;100255.28;;;4.37
78961;BMP280;68362;45.970;12.646;2024-02-26T03:57:55;100244.53;;;3.89
78961;BMP280;68362;45.970;12.646;2024-02-26T03:58:58;100254.09;;;4.03
78961;BMP280;68362;45.970;12.646;2024-02-26T04:00:02;100249.59;;;3.97
78961;BMP280;68362;45.970;12.646;2024-02-26T04:01:07;100243.84;;;4.16
78961;BMP280;68362;45.970;12.646;2024-02-26T04:02:09;100243.19;;;4.29
78961;BMP280;68362;45.970;12.646;2024-02-26T04:03:11;100240.66;;;4.14
78961;BMP280;68362;45.970;12.646;2024-02-26T04:04:14;100245.75;;;3.93
78961;BMP280;68362;45.970;12.646;2024-02-26T04:05:16;100249.78;;;4.10
78961;BMP280;68362;45.970;12.646;2024-02-26T04:06:18;100251.03;;;4.14
78961;BMP280;68362;45.970;12.646;2024-02-26T04:07:23;100251.38;;;4.11
78961;BMP280;68362;45.970;12.646;2024-02-26T04:08:25;100253.53;;;4.22
78961;BMP280;68362;45.970;12.646;2024-02-26T04:09:27;100249.69;;;4.40
78961;BMP280;68362;45.970;12.646;2024-02-26T04:10:29;100254.28;;;4.38
78961;BMP280;68362;45.970;12.646;2024-02-26T04:11:31;100250.56;;;4.47
78961;BMP280;68362;45.970;12.646;2024-02-26T04:12:34;100258.63;;;4.52
78961;BMP280;68362;45.970;12.646;2024-02-26T04:13:36;100247.50;;;4.58
78961;BMP280;68362;45.970;12.646;2024-02-26T04:14:41;100251.53;;;4.61
78961;BMP280;68362;45.970;12.646;2024-02-26T04:15:43;100251.31;;;4.41
78961;BMP280;68362;45.970;12.646;2024-02-26T04:16:46;100251.69;;;4.38
78961;BMP280;68362;45.970;12.646;2024-02-26T04:17:48;100244.03;;;4.51
78961;BMP280;68362;45.970;12.646;2024-02-26T04:18:50;100256.78;;;4.46
78961;BMP280;68362;45.970;12.646;2024-02-26T04:19:53;100247.88;;;4.55
78961;BMP280;68362;45.970;12.646;2024-02-26T04:20:55;100244.03;;;4.51
78961;BMP280;68362;45.970;12.646;2024-02-26T04:21:59;100248.97;;;4.46
78961;BMP280;68362;45.970;12.646;2024-02-26T04:23:02;100246.81;;;4.50
78961;BMP280;68362;45.970;12.646;2024-02-26T04:24:05;100243.63;;;4.33
78961;BMP280;68362;45.970;12.646;2024-02-26T04:25:07;100243.03;;;4.16
78961;BMP280;68362;45.970;12.646;2024-02-26T04:26:09;100241.72;;;4.05
78961;BMP280;68362;45.970;12.646;2024-02-26T04:27:11;100240.91;;;4.19
78961;BMP280;68362;45.970;12.646;2024-02-26T04:28:14;100240.31;;;4.39
78961;BMP280;68362;45.970;12.646;2024-02-26T04:29:16;100240.22;;;4.54
78961;BMP280;68362;45.970;12.646;2024-02-26T04:30:18;100238.22;;;4.49
78961;BMP280;68362;45.970;12.646;2024-02-26T04:31:20;100241.75;;;4.63
78961;BMP280;68362;45.970;12.646;2024-02-26T04:32:23;100248.38;;;4.51
78961;BMP280;68362;45.970;12.646;2024-02-26T04:33:25;100247.19;;;4.46
78961;BMP280;68362;45.970;12.646;2024-02-26T04:34:27;100246.44;;;4.16
78961;BMP280;68362;45.970;12.646;2024-02-26T04:35:29;100249.31;;;4.07
78961;BMP280;68362;45.970;12.646;2024-02-26T04:36:32;100245.53;;;4.24
78961;BMP280;68362;45.970;12.646;2024-02-26T04:37:34;100250.94;;;4.08
78961;BMP280;68362;45.970;12.646;2024-02-26T04:38:37;100249.44;;;3.84
78961;BMP280;68362;45.970;12.646;2024-02-26T04:39:39;100251.91;;;3.92
78961;BMP280;68362;45.970;12.646;2024-02-26T04:40:41;100252.94;;;3.61
78961;BMP280;68362;45.970;12.646;2024-02-26T04:41:43;100256.75;;;3.95
78961;BMP280;68362;45.970;12.646;2024-02-26T04:42:45;100251.56;;;3.95
78961;BMP280;68362;45.970;12.646;2024-02-26T04:43:48;100252.75;;;4.07
78961;BMP280;68362;45.970;12.646;2024-02-26T04:44:50;100252.59;;;4.15
78961;BMP280;68362;45.970;12.646;2024-02-26T04:45:52;100258.84;;;4.36
78961;BMP280;68362;45.970;12.646;2024-02-26T04:46:54;100258.50;;;4.39
78961;BMP280;68362;45.970;12.646;2024-02-26T04:47:56;100260.28;;;4.02
78961;BMP280;68362;45.970;12.646;2024-02-26T04:48:59;100257.59;;;3.81
78961;BMP280;68362;45.970;12.646;2024-02-26T04:50:01;100261.00;;;3.81
78961;BMP280;68362;45.970;12.646;2024-02-26T04:51:04;100262.69;;;3.89
78961;BMP280;68362;45.970;12.646;2024-02-26T04:52:06;100262.13;;;4.08
78961;BMP280;68362;45.970;12.646;2024-02-26T04:53:09;100269.47;;;4.19
78961;BMP280;68362;45.970;12.646;2024-02-26T04:54:11;100267.47;;;4.21
78961;BMP280;68362;45.970;12.646;2024-02-26T04:55:13;100264.41;;;4.33
78961;BMP280;68362;45.970;12.646;2024-02-26T04:56:15;100261.69;;;4.41
78961;BMP280;68362;45.970;12.646;2024-02-26T04:57:17;100267.78;;;4.48
78961;BMP280;68362;45.970;12.646;2024-02-26T04:58:22;100266.06;;;4.55
78961;BMP280;68362;45.970;12.646;2024-02-26T04:59:24;100254.84;;;4.55
78961;BMP280;68362;45.970;12.646;2024-02-26T05:00:26;100257.22;;;4.50
78961;BMP280;68362;45.970;12.646;2024-02-26T05:01:28;100258.09;;;4.42
78961;BMP280;68362;45.970;12.646;2024-02-26T05:02:31;100257.38;;;4.48
78961;BMP280;68362;45.970;12.646;2024-02-26T05:03:35;100249.91;;;4.60
78961;BMP280;68362;45.970;12.646;2024-02-26T05:04:38;100259.53;;;4.44
78961;BMP280;68362;45.970;12.646;2024-02-26T05:05:40;100256.44;;;4.34
78961;BMP280;68362;45.970;12.646;2024-02-26T05:06:43;100252.25;;;4.18
78961;BMP280;68362;45.970;12.646;2024-02-26T05:07:45;100250.84;;;4.16
78961;BMP280;68362;45.970;12.646;2024-02-26T05:08:48;100245.66;;;4.01
78961;BMP280;68362;45.970;12.646;2024-02-26T05:09:50;100249.59;;;3.97
78961;BMP280;68362;45.970;12.646;2024-02-26T05:10:52;100253.88;;;4.19
78961;BMP280;68362;45.970;12.646;2024-02-26T05:11:54;100256.38;;;4.28
78961;BMP280;68362;45.970;12.646;2024-02-26T05:12:56;100262.47;;;4.20
78961;BMP280;68362;45.970;12.646;2024-02-26T05:13:59;100260.88;;;4.19
78961;BMP280;68362;45.970;12.646;2024-02-26T05:15:03;100258.75;;;3.93
78961;BMP280;68362;45.970;12.646;2024-02-26T05:16:05;100260.28;;;4.02
78961;BMP280;68362;45.970;12.646;2024-02-26T05:17:07;100262.91;;;4.23
78961;BMP280;68362;45.970;12.646;2024-02-26T05:18:09;100262.00;;;4.31
78961;BMP280;68362;45.970;12.646;2024-02-26T05:19:12;100266.19;;;4.32
78961;BMP280;68362;45.970;12.646;2024-02-26T05:20:14;100263.50;;;4.40
78961;BMP280;68362;45.970;12.646;2024-02-26T05:21:16;100262.94;;;4.45
78961;BMP280;68362;45.970;12.646;2024-02-26T05:22:19;100263.44;;;4.34
78961;BMP280;68362;45.970;12.646;2024-02-26T05:23:22;100264.94;;;4.43
78961;BMP280;68362;45.970;12.646;2024-02-26T05:24:24;100263.72;;;4.24
78961;BMP280;68362;45.970;12.646;2024-02-26T05:25:26;100265.41;;;4.17
78961;BMP280;68362;45.970;12.646;2024-02-26T05:26:28;100268.88;;;4.39
78961;BMP280;68362;45.970;12.646;2024-02-26T05:27:31;100270.13;;;4.43
78961;BMP280;68362;45.970;12.646;2024-02-26T05:28:33;100266.59;;;4.14
78961;BMP280;68362;45.970;12.646;2024-02-26T05:29:36;100267.56;;;4.28
78961;BMP280;68362;45.970;12.646;2024-02-26T05:30:38;100278.03;;;4.35
78961;BMP280;68362;45.970;12.646;2024-02-26T05:31:42;100272.97;;;4.48
78961;BMP280;68362;45.970;12.646;2024-02-26T05:32:44;100272.03;;;4.34
78961;BMP280;68362;45.970;12.646;2024-02-26T05:33:47;100272.81;;;4.50
78961;BMP280;68362;45.970;12.646;2024-02-26T05:34:49;100273.84;;;4.55
78961;BMP280;68362;45.970;12.646;2024-02-26T05:35:52;100278.34;;;4.46
78961;BMP280;68362;45.970;12.646;2024-02-26T05:36:54;100275.22;;;4.36
78961;BMP280;68362;45.970;12.646;2024-02-26T05:37:56;100278.53;;;4.30
78961;BMP280;68362;45.970;12.646;2024-02-26T05:38:58;100283.28;;;4.41
78961;BMP280;68362;45.970;12.646;2024-02-26T05:40:00;100278.56;;;4.15
78961;BMP280;68362;45.970;12.646;2024-02-26T05:41:02;100282.56;;;3.96
78961;BMP280;68362;45.970;12.646;2024-02-26T05:42:06;100285.66;;;3.92
78961;BMP280;68362;45.970;12.646;2024-02-26T05:43:10;100280.59;;;3.98
78961;BMP280;68362;45.970;12.646;2024-02-26T05:44:13;100283.19;;;3.84
78961;BMP280;68362;45.970;12.646;2024-02-26T05:45:16;100279.25;;;3.73
78961;BMP280;68362;45.970;12.646;2024-02-26T05:46:19;100283.69;;;3.79
78961;BMP280;68362;45.970;12.646;2024-02-26T05:47:21;100276.38;;;3.97
78961;BMP280;68362;45.970;12.646;2024-02-26T05:48:24;100281.56;;;4.12
78961;BMP280;68362;45.970;12.646;2024-02-26T05:49:26;100288.59;;;4.04
78961;BMP280;68362;45.970;12.646;2024-02-26T05:50:28;100285.94;;;4.27
78961;BMP280;68362;45.970;12.646;2024-02-26T05:51:30;100277.34;;;4.11
78961;BMP280;68362;45.970;12.646;2024-02-26T05:52:33;100283.19;;;4.13
78961;BMP280;68362;45.970;12.646;2024-02-26T05:53:34;100280.81;;;4.18
78961;BMP280;68362;45.970;12.646;2024-02-26T05:54:37;100286.25;;;4.38
78961;BMP280;68362;45.970;12.646;2024-02-26T05:55:39;100279.03;;;4.19